Time;durP1;ratioP1;P1;durP2;ratioP2;P2;SDS_P1;SDS_P2;PMS_P1;PMS_P2;Temp;Humidity;BMP_temperature;BMP_pressure;BME280_temperature;BME280_humidity;BME280_pressure;Samples;Min_cycle;Max_cycle;Signal;HPM_P1;HPM_P2
2022/05/30 00:01:10;;;;;;;6.13;2.95;;;9.30;99.90;;;;;;5046676;28;20140;-57
2022/05/30 00:03:37;;;;;;;3.97;2.42;;;9.30;99.90;;;;;;5046341;28;21486;-56
2022/05/30 00:06:11;;;;;;;4.88;2.13;;;9.20;99.90;;;;;;5046671;28;20428;-56
2022/05/30 00:08:38;;;;;;;9.43;2.60;;;9.20;99.90;;;;;;5047127;28;20128;-54
2022/05/30 00:11:05;;;;;;;4.70;2.38;;;9.20;99.90;;;;;;5047012;28;20132;-56
2022/05/30 00:13:33;;;;;;;6.47;2.35;;;9.20;99.90;;;;;;5046717;28;20242;-57
2022/05/30 00:16:08;;;;;;;5.43;2.22;;;9.00;99.90;;;;;;5046667;28;20140;-56
2022/05/30 00:18:35;;;;;;;3.35;2.00;;;9.00;99.90;;;;;;5047060;28;20045;-58
2022/05/30 00:21:02;;;;;;;6.85;2.03;;;9.00;99.90;;;;;;5051690;28;20083;-57
2022/05/30 00:23:29;;;;;;;3.60;1.80;;;8.90;99.90;;;;;;5041399;28;20156;-57
2022/05/30 00:25:56;;;;;;;5.15;2.30;;;8.80;99.90;;;;;;5048299;28;20136;-57
2022/05/30 00:28:23;;;;;;;4.15;2.10;;;8.90;99.90;;;;;;5048906;28;20120;-57
2022/05/30 00:30:50;;;;;;;7.00;2.88;;;8.90;99.90;;;;;;5049061;28;20065;-56
2022/05/30 00:33:17;;;;;;;4.22;2.13;;;9.00;99.90;;;;;;5049115;28;20099;-56
2022/05/30 00:35:44;;;;;;;4.43;2.15;;;9.00;99.90;;;;;;5049264;28;20076;-57
2022/05/30 00:38:12;;;;;;;4.03;2.10;;;9.00;99.90;;;;;;5049018;28;20136;-55
2022/05/30 00:40:39;;;;;;;4.72;2.22;;;8.90;99.90;;;;;;5048285;28;20049;-56
2022/05/30 00:43:21;;;;;;;6.60;2.55;;;9.00;99.90;;;;;;5048797;28;20506;-56
2022/05/30 00:45:48;;;;;;;5.47;2.45;;;9.00;99.90;;;;;;5048309;28;20049;-57
2022/05/30 00:48:15;;;;;;;5.00;2.10;;;8.90;99.90;;;;;;5048232;28;20302;-57
2022/05/30 00:50:42;;;;;;;6.97;1.98;;;8.90;99.90;;;;;;5047771;28;20176;-56
2022/05/30 00:53:08;;;;;;;3.95;2.25;;;8.80;99.90;;;;;;5047705;28;20556;-57
2022/05/30 00:55:35;;;;;;;3.72;2.00;;;8.80;99.90;;;;;;5048900;28;20528;-57
2022/05/30 00:58:02;;;;;;;4.70;2.45;;;8.80;99.90;;;;;;5048127;28;20124;-56
2022/05/30 01:00:29;;;;;;;6.15;2.72;;;8.90;99.90;;;;;;5047751;28;20132;-57
2022/05/30 01:08:29;;;;;;;3.00;1.55;;;8.60;99.90;;;;;;5048689;28;20120;-57
2022/05/30 01:10:56;;;;;;;4.47;1.83;;;8.60;99.90;;;;;;5047965;28;20441;-56
2022/05/30 01:13:24;;;;;;;3.28;1.45;;;8.50;99.90;;;;;;5048399;28;20541;-57
2022/05/30 01:15:51;;;;;;;2.22;1.40;;;8.50;99.90;;;;;;5048211;28;20132;-57
2022/05/30 01:18:25;;;;;;;2.67;1.33;;;8.60;99.90;;;;;;5048163;28;20059;-56
2022/05/30 01:20:52;;;;;;;4.65;1.50;;;8.70;99.90;;;;;;5046913;28;20582;-56
2022/05/30 01:23:44;;;;;;;2.97;1.60;;;8.80;99.90;;;;;;5048117;28;20124;-58
2022/05/30 01:26:25;;;;;;;2.30;1.42;;;8.90;99.90;;;;;;5048545;28;20124;-56
2022/05/30 01:29:01;;;;;;;9.93;1.48;;;8.90;99.90;;;;;;5073370;28;20099;-56
2022/05/30 01:31:28;;;;;;;5.70;2.08;;;8.90;99.90;;;;;;5046391;28;20106;-56
2022/05/30 01:33:55;;;;;;;3.60;1.90;;;8.80;99.90;;;;;;5048418;28;20052;-54
2022/05/30 01:36:26;;;;;;;6.25;1.60;;;8.80;99.90;;;;;;5048179;28;20080;-56
2022/05/30 01:38:53;;;;;;;1.95;1.42;;;8.70;99.90;;;;;;5047717;28;20080;-56
2022/05/30 01:41:20;;;;;;;5.18;1.88;;;8.60;99.90;;;;;;5047831;28;20075;-58
2022/05/30 01:43:47;;;;;;;5.45;1.92;;;8.60;99.90;;;;;;5047826;28;20072;-57
2022/05/30 01:46:16;;;;;;;4.90;2.05;;;8.60;99.90;;;;;;5047279;28;20139;-56
2022/05/30 01:48:45;;;;;;;3.53;1.73;;;8.60;99.90;;;;;;5048419;28;20420;-56
2022/05/30 01:51:13;;;;;;;4.38;1.98;;;8.70;99.90;;;;;;5048739;28;20076;-55
2022/05/30 01:53:40;;;;;;;4.10;1.63;;;8.60;99.90;;;;;;5047200;28;20107;-55
2022/05/30 01:56:07;;;;;;;4.05;1.60;;;8.40;99.90;;;;;;5048759;28;20575;-56
2022/05/30 01:58:34;;;;;;;4.72;1.88;;;8.30;99.90;;;;;;5048604;28;20118;-57
2022/05/30 02:01:33;;;;;;;2.70;1.45;;;8.40;99.90;;;;;;5048558;28;20132;-55
2022/05/30 02:04:01;;;;;;;4.95;1.88;;;8.50;99.90;;;;;;5027692;28;20128;-56
2022/05/30 02:06:28;;;;;;;3.53;2.13;;;8.50;99.90;;;;;;5046830;28;20103;-56
2022/05/30 02:08:55;;;;;;;3.28;1.60;;;8.50;99.90;;;;;;5048443;28;20087;-56
2022/05/30 02:11:21;;;;;;;4.07;1.80;;;8.50;99.90;;;;;;5047851;28;20121;-56
2022/05/30 02:13:48;;;;;;;4.68;1.92;;;8.40;99.90;;;;;;5047405;28;20078;-56
2022/05/30 02:19:01;;;;;;;3.05;1.80;;;8.20;99.90;;;;;;5046950;28;20049;-57
2022/05/30 02:21:30;;;;;;;3.22;1.45;;;8.10;99.90;;;;;;5046975;28;20040;-53
2022/05/30 02:23:57;;;;;;;6.05;1.58;;;8.10;99.90;;;;;;4696816;28;10000367;-56
2022/05/30 02:26:24;;;;;;;2.85;1.60;;;8.10;99.90;;;;;;5044835;28;20143;-55
2022/05/30 02:28:51;;;;;;;3.42;1.40;;;8.00;99.90;;;;;;5047209;28;20083;-54
2022/05/30 02:31:17;;;;;;;6.15;1.50;;;7.90;99.90;;;;;;5046877;28;20084;-56
2022/05/30 02:36:39;;;;;;;5.00;1.88;;;7.80;99.90;;;;;;5046624;28;20080;-56
2022/05/30 02:39:25;;;;;;;2.83;1.67;;;7.80;99.90;;;;;;5047193;28;20114;-55
2022/05/30 02:41:52;;;;;;;2.20;1.05;;;7.90;99.90;;;;;;5046882;28;20087;-55
2022/05/30 02:44:20;;;;;;;2.50;1.00;;;7.90;99.90;;;;;;5046029;28;20040;-59
2022/05/30 02:46:50;;;;;;;4.03;1.35;;;7.90;99.90;;;;;;5046675;28;20103;-54
2022/05/30 02:49:17;;;;;;;2.60;1.33;;;7.80;99.90;;;;;;5046846;28;20427;-58
2022/05/30 02:51:45;;;;;;;3.85;1.58;;;7.80;99.90;;;;;;5046353;28;20069;-57
2022/05/30 02:54:12;;;;;;;2.72;1.52;;;7.80;99.90;;;;;;5047132;28;20081;-56
2022/05/30 02:56:39;;;;;;;3.40;1.65;;;7.80;99.90;;;;;;5046913;28;20064;-58
2022/05/30 02:59:06;;;;;;;1.60;0.98;;;7.80;99.90;;;;;;5046612;28;20143;-56
2022/05/30 03:01:34;;;;;;;7.65;1.45;;;7.80;99.90;;;;;;5045174;28;20451;-55
2022/05/30 03:04:01;;;;;;;1.60;1.10;;;7.90;99.90;;;;;;5046252;28;20045;-56
2022/05/30 03:06:29;;;;;;;2.28;0.77;;;8.00;99.90;;;;;;5046281;28;20049;-55
2022/05/30 03:08:58;;;;;;;1.58;1.00;;;7.90;99.90;;;;;;5046305;28;20126;-60
2022/05/30 03:11:25;;;;;;;1.67;1.10;;;7.90;99.90;;;;;;5045891;28;20087;-53
2022/05/30 03:13:52;;;;;;;3.88;1.20;;;7.90;99.90;;;;;;5046650;28;20076;-56
2022/05/30 03:16:18;;;;;;;2.33;1.30;;;8.00;99.90;;;;;;5046426;28;20048;-54
2022/05/30 03:18:46;;;;;;;5.15;1.55;;;8.10;99.90;;;;;;5046731;28;20052;-57
2022/05/30 03:21:13;;;;;;;3.22;1.20;;;8.10;99.90;;;;;;5046045;28;20103;-55
2022/05/30 03:23:39;;;;;;;4.25;1.17;;;8.10;99.90;;;;;;5046368;28;20140;-56
2022/05/30 03:26:06;;;;;;;3.33;1.98;;;8.10;99.90;;;;;;5046886;28;20068;-56
2022/05/30 03:28:33;;;;;;;3.55;1.20;;;8.20;99.90;;;;;;5046201;28;20140;-56
2022/05/30 03:31:00;;;;;;;4.00;1.60;;;8.20;99.90;;;;;;5045791;28;20131;-56
2022/05/30 03:33:28;;;;;;;4.18;1.00;;;8.20;99.90;;;;;;5043931;28;20041;-57
2022/05/30 03:35:55;;;;;;;3.38;1.23;;;8.20;99.90;;;;;;5045613;28;20450;-55
2022/05/30 03:38:21;;;;;;;2.25;0.98;;;8.10;99.90;;;;;;5039117;28;20148;-51
2022/05/30 03:40:48;;;;;;;4.35;1.58;;;8.10;99.90;;;;;;5046299;28;20140;-56
2022/05/30 03:43:15;;;;;;;3.70;1.30;;;8.00;99.90;;;;;;5046142;28;20136;-55
2022/05/30 03:45:43;;;;;;;1.83;1.00;;;8.00;99.90;;;;;;5045941;28;20136;-56
2022/05/30 03:48:11;;;;;;;4.38;1.50;;;8.10;99.90;;;;;;5046374;28;20037;-55
2022/05/30 03:50:41;;;;;;;5.78;1.30;;;8.00;99.90;;;;;;5045889;28;20079;-56
2022/05/30 03:53:08;;;;;;;1.52;1.00;;;8.00;99.90;;;;;;5046357;28;20136;-54
2022/05/30 03:55:43;;;;;;;5.20;1.27;;;8.00;99.90;;;;;;5046639;28;20562;-53
2022/05/30 03:58:11;;;;;;;2.90;1.17;;;8.00;99.90;;;;;;5043701;28;20140;-54
2022/05/30 04:00:38;;;;;;;2.75;1.02;;;7.90;99.90;;;;;;5045803;28;20128;-55
2022/05/30 04:03:05;;;;;;;2.22;1.42;;;7.80;99.90;;;;;;5073346;28;20132;-56
2022/05/30 04:05:32;;;;;;;6.32;1.50;;;7.90;99.90;;;;;;5076501;28;20055;-54
2022/05/30 04:07:59;;;;;;;6.32;1.77;;;7.80;99.90;;;;;;5045957;28;20049;-55
2022/05/30 04:10:26;;;;;;;2.20;1.10;;;7.70;99.90;;;;;;5045701;28;20093;-56
2022/05/30 04:13:00;;;;;;;6.80;1.13;;;7.70;99.90;;;;;;5044929;28;20056;-54
2022/05/30 04:15:27;;;;;;;2.00;1.10;;;7.80;99.90;;;;;;5045723;28;20144;-54
2022/05/30 04:17:54;;;;;;;3.38;1.20;;;7.80;99.90;;;;;;5078354;28;20049;-53
2022/05/30 04:20:21;;;;;;;3.20;1.27;;;7.80;99.90;;;;;;5045725;28;20072;-53
2022/05/30 04:22:48;;;;;;;2.72;1.27;;;7.80;99.90;;;;;;5048277;28;20095;-56
2022/05/30 04:25:14;;;;;;;2.92;1.30;;;7.80;99.90;;;;;;5050306;28;20106;-56
2022/05/30 04:27:41;;;;;;;2.75;1.55;;;7.70;99.90;;;;;;5049763;28;20075;-57
2022/05/30 04:30:08;;;;;;;2.67;1.25;;;7.60;99.90;;;;;;5049442;28;20132;-58
2022/05/30 04:32:36;;;;;;;1.80;1.08;;;7.60;99.90;;;;;;5050090;28;20789;-56
2022/05/30 04:35:06;;;;;;;5.63;1.50;;;7.60;99.90;;;;;;5049883;28;20102;-56
2022/05/30 04:37:33;;;;;;;4.70;1.60;;;7.50;99.90;;;;;;5081620;28;20065;-57
2022/05/30 04:40:00;;;;;;;2.90;1.10;;;7.60;99.90;;;;;;5048673;28;20072;-55
2022/05/30 04:42:27;;;;;;;3.03;1.23;;;7.60;99.90;;;;;;5047847;28;20065;-51
2022/05/30 04:44:54;;;;;;;2.47;1.23;;;7.60;99.90;;;;;;5049023;28;20152;-54
2022/05/30 04:47:20;;;;;;;1.75;1.13;;;7.60;99.90;;;;;;5049323;28;20065;-53
2022/05/30 04:49:48;;;;;;;1.95;1.23;;;7.60;99.90;;;;;;5049177;28;20331;-56
2022/05/30 04:52:15;;;;;;;3.10;1.45;;;7.60;99.90;;;;;;5081058;28;20068;-51
2022/05/30 04:54:42;;;;;;;3.83;2.00;;;7.60;99.90;;;;;;5048266;28;20057;-55
2022/05/30 04:57:09;;;;;;;4.15;1.77;;;7.60;99.90;;;;;;5048924;28;20168;-55
2022/05/30 04:59:39;;;;;;;4.55;2.45;;;7.60;99.90;;;;;;5048170;28;20551;-55
2022/05/30 05:02:06;;;;;;;4.18;1.83;;;7.70;99.90;;;;;;5049079;28;20124;-56
2022/05/30 05:04:32;;;;;;;2.53;1.80;;;7.70;99.90;;;;;;5048496;28;20049;-53
2022/05/30 05:07:01;;;;;;;4.97;2.20;;;7.80;99.90;;;;;;5048212;28;20088;-55
2022/05/30 05:09:34;;;;;;;5.45;2.00;;;7.80;99.90;;;;;;5048429;28;20053;-54
2022/05/30 05:12:00;;;;;;;6.38;3.15;;;7.80;99.90;;;;;;5048664;28;20072;-55
2022/05/30 05:14:27;;;;;;;3.58;2.42;;;7.90;99.90;;;;;;5046989;28;20044;-53
2022/05/30 05:16:54;;;;;;;4.93;2.42;;;8.00;99.90;;;;;;5048183;28;20079;-56
2022/05/30 05:19:21;;;;;;;5.57;1.80;;;8.10;99.90;;;;;;5048160;28;20147;-55
2022/05/30 05:21:48;;;;;;;4.25;2.20;;;8.10;99.90;;;;;;5047476;28;20503;-55
2022/05/30 05:24:16;;;;;;;6.95;2.38;;;8.10;99.90;;;;;;5048691;28;20481;-56
2022/05/30 05:26:44;;;;;;;9.95;1.83;;;8.20;99.90;;;;;;5047465;28;20063;-57
2022/05/30 05:29:11;;;;;;;8.23;2.25;;;8.20;99.90;;;;;;5048359;28;20106;-56
2022/05/30 05:31:38;;;;;;;5.47;2.42;;;8.20;99.90;;;;;;5047693;28;20178;-54
2022/05/30 05:34:06;;;;;;;4.10;1.88;;;8.30;99.90;;;;;;5048094;28;20102;-56
2022/05/30 05:36:35;;;;;;;6.65;1.80;;;8.40;99.90;;;;;;5048641;28;20045;-57
2022/05/30 05:39:02;;;;;;;11.35;2.28;;;8.40;99.90;;;;;;5047875;28;20547;-56
2022/05/30 05:41:29;;;;;;;5.00;1.67;;;8.50;99.90;;;;;;5047814;28;20242;-57
2022/05/30 05:43:55;;;;;;;11.32;2.00;;;8.60;99.90;;;;;;5048416;28;20148;-56
2022/05/30 05:46:24;;;;;;;5.07;2.00;;;8.70;99.90;;;;;;5047586;28;20683;-56
2022/05/30 05:48:52;;;;;;;4.97;1.30;;;8.80;99.90;;;;;;5048009;28;20049;-57
2022/05/30 05:51:19;;;;;;;3.80;1.30;;;8.90;99.90;;;;;;5047318;28;20139;-56
2022/05/30 05:53:46;;;;;;;4.30;1.45;;;8.90;99.90;;;;;;5047633;28;20041;-59
2022/05/30 05:56:15;;;;;;;3.55;1.38;;;9.00;99.90;;;;;;5047970;28;20084;-56
2022/05/30 05:58:43;;;;;;;12.95;1.85;;;9.10;99.90;;;;;;5047240;28;20044;-58
2022/05/30 06:01:18;;;;;;;14.75;1.77;;;9.20;99.90;;;;;;5047870;28;20049;-57
2022/05/30 06:03:45;;;;;;;6.97;1.30;;;9.30;99.90;;;;;;5047657;28;20048;-59
2022/05/30 06:06:11;;;;;;;8.10;1.48;;;9.40;99.90;;;;;;5046342;28;20084;-57
2022/05/30 06:08:38;;;;;;;6.70;1.63;;;9.50;99.90;;;;;;5047651;28;20041;-56
2022/05/30 06:11:05;;;;;;;4.75;1.05;;;9.70;99.90;;;;;;5047376;28;20144;-53
2022/05/30 06:13:32;;;;;;;5.50;1.23;;;9.70;99.90;;;;;;5047672;28;20128;-55
2022/05/30 06:16:00;;;;;;;5.07;1.00;;;9.90;99.90;;;;;;5042534;28;20101;-52
2022/05/30 06:18:26;;;;;;;3.80;0.85;;;10.00;99.90;;;;;;5047443;28;20064;-55
2022/05/30 06:20:59;;;;;;;9.40;1.30;;;10.20;99.90;;;;;;5046407;28;20143;-52
2022/05/30 06:23:26;;;;;;;4.20;1.20;;;10.30;99.90;;;;;;5079333;28;20049;-56
2022/05/30 06:25:53;;;;;;;5.20;1.20;;;10.40;99.90;;;;;;5050099;28;20127;-55
2022/05/30 06:28:20;;;;;;;6.13;1.45;;;10.50;99.90;;;;;;5045919;28;20077;-52
2022/05/30 06:30:47;;;;;;;6.45;1.50;;;10.60;99.90;;;;;;5043531;28;20095;-54
2022/05/30 06:33:14;;;;;;;3.58;0.90;;;10.80;99.90;;;;;;5046636;28;20132;-54
2022/05/30 06:35:41;;;;;;;8.10;1.55;;;10.90;99.90;;;;;;5046760;28;20135;-53
2022/05/30 06:38:09;;;;;;;12.40;1.17;;;11.00;99.90;;;;;;5046215;28;20055;-54
2022/05/30 06:40:36;;;;;;;3.78;1.23;;;11.10;99.90;;;;;;5045085;28;20128;-54
2022/05/30 06:43:03;;;;;;;3.45;0.88;;;11.20;99.90;;;;;;5046233;28;20140;-54
2022/05/30 06:45:30;;;;;;;3.00;1.08;;;11.40;99.90;;;;;;5045482;28;20539;-56
2022/05/30 06:47:58;;;;;;;5.85;1.08;;;11.40;99.90;;;;;;5046658;28;20128;-55
2022/05/30 06:50:26;;;;;;;3.22;0.73;;;11.60;99.90;;;;;;5046374;28;20053;-55
2022/05/30 06:52:53;;;;;;;4.65;1.13;;;11.70;99.90;;;;;;5046532;28;20048;-53
2022/05/30 06:55:19;;;;;;;1.58;0.65;;;11.90;99.90;;;;;;5078050;28;20151;-55
2022/05/30 07:00:32;;;;;;;2.45;0.60;;;12.20;99.90;;;;;;5046445;28;20140;-56
2022/05/30 07:02:59;;;;;;;9.82;1.13;;;12.20;99.90;;;;;;5046302;28;20127;-55
2022/05/30 07:05:26;;;;;;;5.00;0.60;;;12.30;99.90;;;;;;5045517;28;20503;-54
2022/05/30 07:07:56;;;;;;;1.48;0.60;;;12.40;99.90;;;;;;5044798;28;20049;-57
2022/05/30 07:10:24;;;;;;;6.07;0.93;;;12.40;99.90;;;;;;5044710;28;20125;-57
2022/05/30 07:12:51;;;;;;;3.15;1.02;;;12.50;99.90;;;;;;5045793;28;20072;-57
2022/05/30 07:15:18;;;;;;;2.50;0.75;;;12.60;99.90;;;;;;5045091;28;20080;-57
2022/05/30 07:17:51;;;;;;;5.28;0.85;;;12.70;99.90;;;;;;5075612;28;20044;-57
2022/05/30 07:20:18;;;;;;;4.95;0.82;;;12.70;99.90;;;;;;5045629;28;20069;-55
2022/05/30 07:22:45;;;;;;;5.40;0.80;;;12.70;99.90;;;;;;5045113;28;20107;-57
2022/05/30 07:25:11;;;;;;;3.70;0.70;;;12.80;99.90;;;;;;5046437;28;20091;-55
2022/05/30 07:27:38;;;;;;;3.85;0.90;;;12.90;99.90;;;;;;5046656;28;20091;-57
2022/05/30 07:30:06;;;;;;;7.70;1.05;;;13.00;99.90;;;;;;5047344;28;20037;-58
2022/05/30 07:32:33;;;;;;;4.53;0.88;;;13.00;99.90;;;;;;5046772;28;20583;-58
2022/05/30 07:35:00;;;;;;;7.00;0.70;;;13.10;99.90;;;;;;5046200;28;20037;-56
2022/05/30 07:37:27;;;;;;;9.00;1.60;;;13.10;99.90;;;;;;5078602;28;20123;-57
2022/05/30 07:39:54;;;;;;;4.03;1.02;;;13.10;99.90;;;;;;5046496;28;20094;-56
2022/05/30 07:42:21;;;;;;;5.95;0.80;;;13.20;99.90;;;;;;5045765;28;20084;-56
2022/05/30 07:44:48;;;;;;;1.25;0.70;;;13.10;99.90;;;;;;5078451;28;20147;-56
2022/05/30 07:47:17;;;;;;;1.85;0.50;;;13.10;99.90;;;;;;5045911;28;20049;-57
2022/05/30 07:49:44;;;;;;;2.78;0.90;;;13.10;99.90;;;;;;5045859;28;20037;-59
2022/05/30 07:52:11;;;;;;;5.00;1.02;;;13.20;99.90;;;;;;5044968;28;20483;-57
2022/05/30 07:54:38;;;;;;;2.15;0.98;;;13.30;99.90;;;;;;5046321;28;20099;-57
2022/05/30 07:57:06;;;;;;;7.85;1.70;;;13.30;99.90;;;;;;5048959;28;20085;-58
2022/05/30 07:59:35;;;;;;;2.58;0.60;;;13.30;99.90;;;;;;5080925;28;20087;-57
2022/05/30 08:02:03;;;;;;;4.25;1.02;;;13.30;99.90;;;;;;5049821;28;20071;-55
2022/05/30 08:04:30;;;;;;;4.53;0.90;;;13.20;99.90;;;;;;5049252;28;20508;-56
2022/05/30 08:06:57;;;;;;;1.77;0.52;;;13.20;99.90;;;;;;5047492;28;20187;-57
2022/05/30 08:09:23;;;;;;;4.47;0.70;;;13.10;99.90;;;;;;5045041;28;20131;-58
2022/05/30 08:11:50;;;;;;;3.95;0.70;;;13.20;99.90;;;;;;5046777;28;20079;-55
2022/05/30 08:14:17;;;;;;;6.50;1.85;;;13.20;99.90;;;;;;5081873;28;20053;-56
2022/05/30 08:16:44;;;;;;;4.47;0.82;;;13.20;99.90;;;;;;5049908;28;20128;-56
2022/05/30 08:19:16;;;;;;;3.90;1.00;;;13.10;99.90;;;;;;5049793;28;20061;-56
2022/05/30 08:22:04;;;;;;;6.38;0.98;;;13.10;99.90;;;;;;5046710;28;20044;-56
2022/05/30 08:24:39;;;;;;;2.20;0.70;;;13.10;99.90;;;;;;5043200;28;20103;-54
2022/05/30 08:27:06;;;;;;;6.95;0.75;;;13.10;99.90;;;;;;5047039;28;20058;-55
2022/05/30 08:29:32;;;;;;;4.05;0.60;;;13.10;99.90;;;;;;5042901;28;20049;-57
2022/05/30 08:31:59;;;;;;;5.18;0.68;;;13.10;99.90;;;;;;5048425;28;20467;-57
2022/05/30 08:34:26;;;;;;;2.08;0.57;;;13.10;99.90;;;;;;5049578;28;20055;-57
2022/05/30 08:36:53;;;;;;;3.95;1.05;;;13.10;99.90;;;;;;5045773;28;20563;-57
2022/05/30 08:42:08;;;;;;;5.30;1.00;;;13.10;99.90;;;;;;5048139;28;20128;-56
2022/05/30 08:44:35;;;;;;;1.63;0.60;;;13.20;99.90;;;;;;4722483;28;10000469;-53
2022/05/30 08:47:41;;;;;;;8.00;0.68;;;13.20;99.90;;;;;;5077453;28;20153;-55
2022/05/30 08:50:34;;;;;;;3.15;0.73;;;13.20;99.80;;;;;;5040434;28;20073;-57
2022/05/30 08:53:13;;;;;;;3.10;1.15;;;13.30;99.90;;;;;;5056843;28;20087;-56
2022/05/30 08:55:47;;;;;;;3.25;0.70;;;13.30;99.70;;;;;;5035923;28;20500;-55
2022/05/30 08:58:19;;;;;;;;;;;13.30;99.90;;;;;;5045067;28;20072;-56
2022/05/30 09:00:50;;;;;;;3.60;1.00;;;13.30;98.30;;;;;;5044737;28;20023;-55
2022/05/30 09:03:33;;;;;;;3.97;0.70;;;13.30;99.90;;;;;;5077233;28;20053;-54
2022/05/30 09:06:07;;;;;;;5.83;1.20;;;13.40;99.90;;;;;;5058734;28;20087;-54
2022/05/30 09:08:38;;;;;;;5.65;0.90;;;13.50;99.90;;;;;;5041840;28;20130;-56
2022/05/30 09:11:25;;;;;;;6.68;0.75;;;13.50;99.80;;;;;;5042216;28;20084;-58
2022/05/30 09:13:52;;;;;;;1.35;0.85;;;13.50;98.10;;;;;;5041796;28;20049;-55
2022/05/30 09:16:37;;;;;;;6.25;0.90;;;13.60;99.40;;;;;;5045640;28;20133;-57
2022/05/30 09:19:06;;;;;;;5.05;0.90;;;13.70;97.70;;;;;;5060070;28;20694;-58
2022/05/30 09:21:34;;;;;;;4.90;1.30;;;13.80;99.00;;;;;;5064573;28;20086;-57
2022/05/30 09:24:02;;;;;;;2.63;0.90;;;13.80;98.80;;;;;;5083982;28;20077;-54
2022/05/30 09:26:35;;;;;;;3.15;0.85;;;13.90;98.70;;;;;;5043205;28;20416;-56
2022/05/30 09:29:09;;;;;;;5.93;0.80;;;13.90;97.80;;;;;;5074217;28;20049;-59
2022/05/30 09:31:36;;;;;;;3.03;0.63;;;13.80;97.70;;;;;;5043725;28;20470;-56
2022/05/30 09:34:35;;;;;;;2.85;1.02;;;13.80;97.90;;;;;;5044195;28;20053;-59
2022/05/30 09:37:02;;;;;;;7.47;1.00;;;13.80;96.40;;;;;;5045264;28;20109;-55
2022/05/30 09:39:29;;;;;;;2.72;1.10;;;14.00;98.10;;;;;;5044698;28;21760;-59
2022/05/30 09:41:57;;;;;;;3.83;1.05;;;14.00;97.30;;;;;;5043695;28;20160;-56
2022/05/30 09:44:26;;;;;;;5.38;1.38;;;14.10;97.90;;;;;;5041033;28;20053;-57
2022/05/30 09:47:06;;;;;;;5.22;1.13;;;14.20;97.50;;;;;;5046739;28;20475;-55
2022/05/30 09:49:43;;;;;;;3.08;1.15;;;14.30;97.00;;;;;;5045299;28;20053;-56
2022/05/30 09:52:25;;;;;;;5.43;1.35;;;14.30;97.30;;;;;;5054487;28;20040;-55
2022/05/30 09:54:53;;;;;;;4.97;1.02;;;14.30;97.00;;;;;;5051470;28;20560;-57
2022/05/30 09:57:25;;;;;;;4.53;1.05;;;14.40;97.60;;;;;;5052469;28;20033;-57
2022/05/30 09:59:54;;;;;;;2.78;0.90;;;14.50;97.50;;;;;;5044283;28;20064;-54
2022/05/30 10:02:29;;;;;;;3.40;1.00;;;14.50;95.70;;;;;;5040342;28;20136;-58
2022/05/30 10:05:00;;;;;;;5.15;0.90;;;14.40;96.60;;;;;;5042020;28;20056;-55
2022/05/30 10:07:28;;;;;;;5.20;0.93;;;14.50;96.10;;;;;;5043290;28;20044;-56
2022/05/30 10:10:21;;;;;;;4.97;2.03;;;14.60;95.60;;;;;;5041318;28;20579;-54
2022/05/30 10:13:02;;;;;;;4.28;1.08;;;14.60;96.10;;;;;;5036325;28;20060;-55
2022/05/30 10:15:34;;;;;;;2.85;0.75;;;14.80;96.10;;;;;;5042597;28;20080;-58
2022/05/30 10:18:13;;;;;;;3.13;0.80;;;15.00;96.10;;;;;;5044550;28;20045;-56
2022/05/30 10:20:55;;;;;;;1.27;0.73;;;15.10;95.20;;;;;;5044411;28;20155;-57
2022/05/30 10:30:15;;;;;;;2.75;0.75;;;15.40;93.10;;;;;;5043930;28;20045;-55
2022/05/30 10:32:56;;;;;;;2.53;1.00;;;15.50;93.80;;;;;;5043434;28;20136;-55
2022/05/30 10:35:54;;;;;;;5.25;1.02;;;15.60;94.00;;;;;;5043853;28;20144;-55
2022/05/30 10:38:59;;;;;;;5.07;0.85;;;15.60;93.30;;;;;;5048326;28;20186;-56
2022/05/30 10:41:33;;;;;;;7.13;1.05;;;15.80;94.20;;;;;;5048377;28;20223;-56
2022/05/30 10:44:09;;;;;;;3.83;0.70;;;15.90;94.20;;;;;;5046335;28;20057;-53
2022/05/30 10:47:09;;;;;;;3.90;0.60;;;16.00;94.20;;;;;;5073501;28;20175;-52
2022/05/30 10:49:43;;;;;;;4.45;1.17;;;16.20;92.00;;;;;;5038855;28;20211;-56
2022/05/30 10:52:16;;;;;;;;;;;16.20;93.80;;;;;;5042399;28;20065;-55
2022/05/30 10:54:49;;;;;;;2.20;0.93;;;16.40;91.50;;;;;;5039777;28;20394;-56
2022/05/30 10:57:43;;;;;;;3.53;0.80;;;16.60;92.30;;;;;;5057542;28;20132;-56
2022/05/30 11:00:17;;;;;;;1.42;0.60;;;16.60;90.80;;;;;;5074912;28;20080;-55
2022/05/30 11:03:00;;;;;;;6.95;0.77;;;16.60;91.50;;;;;;5041355;28;20041;-55
2022/05/30 11:05:37;;;;;;;4.75;1.00;;;16.50;91.40;;;;;;5038805;28;20122;-55
2022/05/30 11:08:24;;;;;;;8.23;1.10;;;16.40;91.30;;;;;;5075292;28;20076;-57
2022/05/30 11:10:59;;;;;;;2.58;1.05;;;16.40;90.80;;;;;;5054265;28;20052;-55
2022/05/30 11:13:48;;;;;;;3.58;0.75;;;16.40;91.10;;;;;;5080310;28;20087;-54
2022/05/30 11:16:36;;;;;;;1.88;0.93;;;16.40;90.60;;;;;;5052827;28;20602;-56
2022/05/30 11:19:08;;;;;;;4.78;1.10;;;16.50;88.90;;;;;;5045142;28;20049;-57
2022/05/30 11:21:41;;;;;;;5.57;1.20;;;16.50;90.90;;;;;;5043225;28;20076;-56
2022/05/30 11:24:08;;;;;;;2.85;1.42;;;16.50;90.00;;;;;;5051546;28;20467;-55
2022/05/30 11:26:59;;;;;;;3.45;0.63;;;16.60;91.10;;;;;;5047292;28;20504;-52
2022/05/30 11:29:54;;;;;;;3.65;0.80;;;16.70;88.00;;;;;;5044464;28;20072;-58
2022/05/30 11:32:50;;;;;;;2.40;0.80;;;16.90;87.60;;;;;;5047640;28;20045;-55
2022/05/30 11:35:45;;;;;;;4.75;0.55;;;16.80;85.60;;;;;;5032690;28;20051;-54
2022/05/30 11:38:21;;;;;;;4.05;1.40;;;16.70;85.30;;;;;;5046450;28;20053;-56
2022/05/30 11:41:13;;;;;;;1.38;0.98;;;16.70;89.60;;;;;;5051173;28;20049;-55
2022/05/30 11:43:58;;;;;;;4.10;0.98;;;16.60;87.50;;;;;;5045489;28;20045;-56
2022/05/30 11:46:46;;;;;;;2.70;0.60;;;16.40;89.80;;;;;;5042293;28;20053;-59
2022/05/30 11:49:35;;;;;;;5.95;0.68;;;16.20;86.90;;;;;;5046980;28;20049;-53
2022/05/30 11:52:34;;;;;;;1.38;0.70;;;16.10;86.60;;;;;;5047910;28;20069;-56
2022/05/30 11:55:48;;;;;;;3.30;0.68;;;16.00;87.30;;;;;;5050291;28;20040;-55
2022/05/30 11:58:28;;;;;;;7.05;1.25;;;15.80;88.70;;;;;;4986938;28;20173;-55
2022/05/30 12:00:56;;;;;;;4.22;1.05;;;15.70;89.20;;;;;;5052401;28;20069;-57
2022/05/30 12:03:25;;;;;;;1.52;0.90;;;15.70;90.50;;;;;;5044877;28;20110;-59
2022/05/30 12:06:19;;;;;;;0.93;0.50;;;15.70;89.50;;;;;;5045707;28;20071;-58
2022/05/30 12:08:55;;;;;;;3.00;0.80;;;15.60;90.00;;;;;;5060066;28;20573;-57
2022/05/30 12:11:49;;;;;;;0.80;0.60;;;15.50;90.10;;;;;;5082036;28;20146;-54
2022/05/30 12:14:24;;;;;;;5.43;1.00;;;15.40;88.80;;;;;;5045582;28;20512;-56
2022/05/30 12:17:24;;;;;;;6.32;1.25;;;15.40;90.20;;;;;;5048046;28;20044;-55
2022/05/30 12:25:54;;;;;;;1.40;0.65;;;14.40;95.60;;;;;;5043339;28;20083;-56
2022/05/30 12:28:30;;;;;;;2.67;0.90;;;14.10;97.00;;;;;;5044102;28;20084;-56
2022/05/30 12:30:58;;;;;;;3.38;0.80;;;14.00;98.30;;;;;;5042716;28;20057;-58
2022/05/30 12:33:28;;;;;;;5.38;0.70;;;13.90;98.20;;;;;;5043177;28;20062;-55
2022/05/30 12:36:10;;;;;;;2.47;0.70;;;13.80;99.10;;;;;;5042594;28;20098;-57
2022/05/30 12:38:50;;;;;;;3.83;0.73;;;13.70;99.60;;;;;;5043680;28;20055;-57
2022/05/30 12:41:30;;;;;;;1.52;0.77;;;13.60;99.00;;;;;;5042125;28;20045;-57
2022/05/30 12:43:58;;;;;;;5.13;1.00;;;13.60;99.00;;;;;;5044159;28;20503;-57
2022/05/30 12:46:29;;;;;;;2.33;0.80;;;13.60;99.20;;;;;;5051517;28;20099;-55
2022/05/30 12:49:13;;;;;;;1.67;1.35;;;13.50;99.90;;;;;;5051670;28;20199;-57
2022/05/30 12:52:19;;;;;;;2.90;0.77;;;13.50;99.90;;;;;;5044254;28;20045;-56
2022/05/30 12:54:58;;;;;;;8.05;1.08;;;13.50;99.90;;;;;;5044619;28;20110;-59
2022/05/30 12:57:51;;;;;;;4.78;0.90;;;13.40;99.90;;;;;;5043503;28;20545;-54
2022/05/30 13:00:21;;;;;;;6.07;1.00;;;13.40;99.90;;;;;;5045317;28;20040;-54
2022/05/30 13:03:13;;;;;;;2.63;0.75;;;13.40;99.90;;;;;;5044820;28;20107;-57
2022/05/30 13:05:45;;;;;;;1.98;0.63;;;13.40;99.90;;;;;;5043578;28;20060;-57
2022/05/30 13:08:50;;;;;;;1.00;0.60;;;13.50;99.90;;;;;;5045766;28;20563;-56
2022/05/30 13:11:29;;;;;;;1.35;0.52;;;13.60;99.90;;;;;;5044488;28;20092;-57
2022/05/30 13:13:55;;;;;;;4.28;0.77;;;13.50;99.90;;;;;;5044574;28;20084;-56
2022/05/30 13:16:33;;;;;;;5.22;1.08;;;13.60;99.90;;;;;;5045907;28;20099;-57
2022/05/30 13:19:01;;;;;;;4.28;0.85;;;13.60;99.90;;;;;;5075050;28;20048;-56
2022/05/30 13:21:28;;;;;;;2.88;0.88;;;13.50;99.90;;;;;;5043997;28;20148;-55
2022/05/30 13:23:55;;;;;;;1.98;0.93;;;13.50;99.90;;;;;;5079245;28;20140;-53
2022/05/30 13:26:22;;;;;;;3.60;0.93;;;13.60;99.90;;;;;;5042319;28;20127;-54
2022/05/30 13:28:50;;;;;;;4.80;1.13;;;13.60;99.90;;;;;;5044382;28;20492;-56
2022/05/30 13:31:18;;;;;;;2.75;1.23;;;13.60;99.90;;;;;;5040781;28;20063;-52
2022/05/30 13:33:50;;;;;;;4.15;1.20;;;13.70;99.90;;;;;;5041564;28;20595;-53
2022/05/30 13:36:21;;;;;;;3.95;1.27;;;13.60;99.90;;;;;;5035848;28;20148;-53
2022/05/30 13:38:50;;;;;;;3.45;1.08;;;13.70;99.90;;;;;;5041527;28;20049;-55
2022/05/30 13:41:36;;;;;;;4.07;1.23;;;13.70;99.90;;;;;;5042438;28;20044;-54
2022/05/30 13:44:25;;;;;;;2.53;1.00;;;13.80;99.90;;;;;;5041265;28;20051;-55
2022/05/30 13:46:54;;;;;;;3.05;0.70;;;13.90;99.90;;;;;;5040241;28;20156;-56